KEGI

Duke Field Airport

Crestview, Florida, USA
METAR KEGI 211356Z AUTO 03011KT 10SM CLR 15/09 A3020 RMK AO2 SLP227 T01530092 $
Observed Flight Rules
Oct-21 @ 13:56 UTC (42 minutes ago) Visual Flight Rules
Wind Visibility Clouds
30° at 11 knots 10 miles
  • Clear skies
Temperatures Readings
Current 15°C / 59°F
Dewpoint 9°C / 48°F
Humidity 68%
Altimeter 30.2" Hg
Pressure 1022.7 hPa
Elevation 59
METAR KEGI 211356Z AUTO 03011KT 10SM CLR 15/09 A3020 RMK AO2 SLP227 T01530092 $
Observed Flight Rules
Oct-21 @ 13:56 UTC
(42 minutes ago)
VFR
Wind Visibility
30° at 11 knots 10 miles
Clouds
  • Clear skies
Temperature Dewpoint
15°C / 59°F 9°C / 48°F
Humidity Altimeter Pressure
68% 30.2" Hg 1022.7 hPa